Time;durP1;ratioP1;P1;durP2;ratioP2;P2;SDS_P1;SDS_P2;PMS_P1;PMS_P2;Temp;Humidity;BMP_temperature;BMP_pressure;BME280_temperature;BME280_humidity;BME280_pressure;Samples;Min_cycle;Max_cycle;Signal;HPM_P1;HPM_P2
2023/03/27 00:03:20;;;;;;;6.30;4.33;;;;;;;3.67;100.00;95200.41;10407302;28;20193;-76
2023/03/27 00:08:20;;;;;;;8.10;4.13;;;;;;;3.63;100.00;95206.84;10408437;28;20671;-76
2023/03/27 00:13:21;;;;;;;5.97;4.47;;;;;;;3.71;100.00;95206.94;10407558;28;20603;-76
2023/03/27 00:18:22;;;;;;;6.83;4.97;;;;;;;3.69;100.00;95208.84;10408086;28;20535;-76
2023/03/27 00:23:23;;;;;;;6.20;3.93;;;;;;;3.62;100.00;95210.41;10407080;28;20185;-77
2023/03/27 00:28:26;;;;;;;6.40;4.57;;;;;;;3.71;100.00;95206.94;10407178;28;20255;-76
2023/03/27 00:33:26;;;;;;;6.80;5.20;;;;;;;3.65;100.00;95204.94;10413875;28;20246;-77
2023/03/27 00:38:28;;;;;;;9.97;5.93;;;;;;;3.61;100.00;95211.38;10414770;28;20739;-76
2023/03/27 00:43:33;;;;;;;8.07;6.00;;;;;;;3.48;100.00;95216.94;10397553;28;20212;-76
2023/03/27 00:48:36;;;;;;;5.00;3.50;;;;;;;3.43;100.00;95214.81;10413735;28;20235;-76
2023/03/27 00:53:37;;;;;;;4.83;3.40;;;;;;;3.41;100.00;95211.53;10413919;28;20192;-76
2023/03/27 00:58:43;;;;;;;5.77;4.17;;;;;;;3.43;100.00;95212.22;10413016;28;20220;-78
2023/03/27 01:03:45;;;;;;;4.27;3.70;;;;;;;3.43;100.00;95209.63;10395953;28;20208;-76
2023/03/27 01:08:47;;;;;;;5.03;3.40;;;;;;;3.46;100.00;95214.50;10412324;28;20189;-77
2023/03/27 01:14:04;;;;;;;6.70;3.30;;;;;;;3.37;100.00;95216.22;10412912;28;20189;-76
2023/03/27 01:19:23;;;;;;;3.40;3.03;;;;;;;3.38;100.00;95207.50;10412210;28;20212;-78
2023/03/27 01:25:01;;;;;;;4.80;2.90;;;;;;;3.35;100.00;95214.72;10413549;28;20199;-77
2023/03/27 01:30:07;;;;;;;5.27;3.07;;;;;;;2.71;100.00;95243.22;10395666;28;20199;-77
2023/03/27 01:35:45;;;;;;;6.40;3.67;;;;;;;2.22;100.00;95246.00;10412561;28;20200;-77
2023/03/27 01:41:10;;;;;;;7.40;4.03;;;;;;;1.91;100.00;95276.38;10394611;28;20237;-77
2023/03/27 01:46:17;;;;;;;7.00;3.40;;;;;;;1.41;100.00;95298.03;10411500;28;20191;-77
2023/03/27 01:51:32;;;;;;;7.53;2.90;;;;;;;0.94;100.00;95311.53;10410944;28;20267;-76
2023/03/27 01:56:52;;;;;;;10.90;3.20;;;;;;;0.64;100.00;95336.38;10410423;28;20205;-76
2023/03/27 02:01:59;;;;;;;4.50;2.97;;;;;;;0.46;100.00;95343.91;10395434;28;20226;-75
2023/03/27 02:07:02;;;;;;;9.77;2.50;;;;;;;0.15;100.00;95361.91;10409638;28;20200;-76
2023/03/27 02:12:20;;;;;;;9.73;2.73;;;;;;;-0.07;100.00;95360.25;10410395;28;20527;-74
2023/03/27 02:17:25;;;;;;;4.57;2.50;;;;;;;-0.09;100.00;95380.16;10410423;28;20272;-75
2023/03/27 02:22:27;;;;;;;5.93;2.87;;;;;;;-0.15;100.00;95395.25;10409118;28;20210;-76
2023/03/27 02:27:47;;;;;;;3.33;3.00;;;;;;;-0.32;100.00;95412.03;10392657;28;20193;-76
2023/03/27 02:33:07;;;;;;;4.73;2.67;;;;;;;-0.39;100.00;95415.09;10393736;28;20277;-76
2023/03/27 02:38:31;;;;;;;3.57;2.77;;;;;;;-0.38;100.00;95427.03;10409072;28;20232;-75
2023/03/27 02:43:42;;;;;;;3.20;2.83;;;;;;;-0.50;100.00;95451.16;10391060;28;20637;-77
2023/03/27 02:48:49;;;;;;;3.93;3.00;;;;;;;-0.49;100.00;95468.22;10406685;28;20200;-75
2023/03/27 02:53:54;;;;;;;4.50;3.30;;;;;;;-0.51;100.00;95482.94;10407688;28;20192;-75
2023/03/27 02:58:58;;;;;;;3.57;3.00;;;;;;;-0.49;100.00;95485.41;10391188;28;20689;-75
2023/03/27 03:04:30;;;;;;;4.30;2.77;;;;;;;-0.60;100.00;95501.66;10408344;28;20199;-75
2023/03/27 03:09:47;;;;;;;6.53;3.60;;;;;;;-0.58;100.00;95521.19;10425571;28;20187;-75
2023/03/27 03:14:47;;;;;;;6.13;4.13;;;;;;;-0.55;100.00;95528.69;10425271;28;20612;-74
2023/03/27 03:19:48;;;;;;;8.70;5.37;;;;;;;-0.66;100.00;95546.69;10424308;28;20262;-74
2023/03/27 03:24:49;;;;;;;8.27;5.23;;;;;;;-0.56;100.00;95569.94;10441527;28;20601;-74
2023/03/27 03:29:51;;;;;;;9.67;5.23;;;;;;;-0.60;100.00;95576.25;10424856;28;20208;-74
2023/03/27 03:34:55;;;;;;;11.57;6.00;;;;;;;-0.55;100.00;95584.47;10424943;28;20275;-74
2023/03/27 03:39:57;;;;;;;9.33;5.43;;;;;;;-0.59;100.00;95594.13;10424883;28;20223;-73
2023/03/27 03:44:57;;;;;;;7.93;5.47;;;;;;;-0.65;100.00;95604.09;10425038;28;20635;-73
2023/03/27 03:49:59;;;;;;;11.43;6.13;;;;;;;-0.61;100.00;95616.59;10408088;28;20179;-74
2023/03/27 03:55:00;;;;;;;12.80;6.27;;;;;;;-0.64;100.00;95636.59;10424700;28;20284;-74
2023/03/27 04:00:01;;;;;;;10.53;5.97;;;;;;;-0.57;100.00;95642.91;10424843;28;20212;-74
2023/03/27 04:05:17;;;;;;;18.17;6.83;;;;;;;-0.62;100.00;95660.44;10449330;28;20657;-74
2023/03/27 04:10:18;;;;;;;14.67;6.20;;;;;;;-0.56;100.00;95665.94;10440752;28;20192;-74
2023/03/27 04:15:18;;;;;;;12.80;6.07;;;;;;;-0.61;100.00;95669.81;10457878;28;21028;-74
2023/03/27 04:20:42;;;;;;;13.80;6.17;;;;;;;-0.61;100.00;95669.81;10439996;28;20591;-74
2023/03/27 04:25:45;;;;;;;18.93;5.80;;;;;;;-0.58;100.00;95677.28;10439399;28;20242;-74
2023/03/27 04:30:49;;;;;;;14.00;6.17;;;;;;;-0.60;100.00;95674.84;10439580;28;20278;-74
2023/03/27 04:35:52;;;;;;;9.13;4.57;;;;;;;-0.57;100.00;95684.88;10456827;28;20319;-74
2023/03/27 04:40:54;;;;;;;22.23;5.07;;;;;;;-0.54;100.00;95694.13;10438251;28;20233;-74
2023/03/27 04:45:56;;;;;;;15.03;5.03;;;;;;;-0.53;100.00;95703.47;10456835;28;20204;-73
2023/03/27 04:50:57;;;;;;;10.30;4.50;;;;;;;-0.49;100.00;95716.94;10438353;28;20187;-74
2023/03/27 04:56:06;;;;;;;8.07;3.87;;;;;;;-0.52;100.00;95714.56;10438607;28;20209;-74
2023/03/27 05:01:11;;;;;;;14.17;4.10;;;;;;;-0.53;100.00;95729.19;10437766;28;20212;-74
2023/03/27 05:06:31;;;;;;;14.30;4.30;;;;;;;-0.53;100.00;95736.91;10456787;28;20659;-74
2023/03/27 05:11:32;;;;;;;11.27;4.50;;;;;;;-0.51;100.00;95749.66;10437684;28;20470;-74
2023/03/27 05:16:34;;;;;;;8.77;4.20;;;;;;;-0.48;100.00;95760.53;10437166;28;20629;-75
2023/03/27 05:21:36;;;;;;;19.63;5.33;;;;;;;-0.46;100.00;95765.59;10437256;28;20216;-74
2023/03/27 05:26:38;;;;;;;12.90;3.97;;;;;;;-0.51;100.00;95768.50;10437404;28;20198;-74
2023/03/27 05:31:38;;;;;;;15.87;4.23;;;;;;;-0.43;100.00;95763.63;10436629;28;20191;-74
2023/03/27 05:37:05;;;;;;;10.10;4.53;;;;;;;-0.43;100.00;95763.63;10436604;28;20227;-76
2023/03/27 05:42:07;;;;;;;10.97;4.50;;;;;;;-0.38;100.00;95771.00;10436530;28;20223;-75
2023/03/27 05:47:10;;;;;;;10.30;4.23;;;;;;;-0.32;100.00;95780.00;10453984;28;20192;-75
2023/03/27 05:52:10;;;;;;;7.20;4.20;;;;;;;-0.38;100.00;95781.28;10436261;28;20681;-76
2023/03/27 05:57:11;;;;;;;10.57;4.33;;;;;;;-0.30;100.00;95778.97;10419740;28;20198;-76
2023/03/27 06:02:17;;;;;;;12.07;4.90;;;;;;;-0.26;100.00;95790.69;10435483;28;20222;-75
2023/03/27 06:07:25;;;;;;;14.40;5.80;;;;;;;-0.31;100.00;95797.09;10435686;28;20191;-75
2023/03/27 06:12:26;;;;;;;9.53;5.70;;;;;;;-0.37;100.00;95808.66;10435312;28;20660;-75
2023/03/27 06:17:37;;;;;;;12.00;5.33;;;;;;;-0.31;100.00;95813.34;10435323;28;20283;-76
2023/03/27 06:22:45;;;;;;;9.43;5.43;;;;;;;-0.32;100.00;95824.59;10434553;28;20713;-76
2023/03/27 06:27:47;;;;;;;11.57;5.30;;;;;;;-0.37;100.00;95834.38;10433944;28;20204;-76
2023/03/27 06:32:56;;;;;;;10.77;5.60;;;;;;;-0.35;100.00;95835.09;10452316;28;20186;-76
2023/03/27 06:38:03;;;;;;;11.47;5.67;;;;;;;-0.32;100.00;95840.03;10434305;28;20259;-77
2023/03/27 06:43:06;;;;;;;14.70;4.63;;;;;;;-0.36;100.00;95847.13;10451678;28;20293;-76
2023/03/27 06:48:23;;;;;;;8.30;4.40;;;;;;;-0.36;100.00;95852.28;10434282;28;20198;-75
2023/03/27 06:53:26;;;;;;;4.43;3.70;;;;;;;-0.27;100.00;95850.81;10433570;28;20238;-77
2023/03/27 06:58:26;;;;;;;9.80;4.20;;;;;;;-0.22;100.00;95858.19;10433570;28;20757;-77
2023/03/27 07:03:27;;;;;;;8.17;4.57;;;;;;;-0.11;100.00;95865.94;10433090;28;20209;-76
2023/03/27 07:08:43;;;;;;;8.33;4.70;;;;;;;-0.08;100.00;95875.22;10433557;28;20248;-77
2023/03/27 07:13:43;;;;;;;5.80;4.20;;;;;;;-0.20;100.00;95888.03;10432508;28;20195;-77
2023/03/27 07:18:53;;;;;;;5.50;3.57;;;;;;;-0.27;100.00;95891.16;10433248;28;20212;-75
2023/03/27 07:23:54;;;;;;;10.50;3.90;;;;;;;-0.28;100.00;95892.09;10432023;28;20551;-75
2023/03/27 07:29:10;;;;;;;7.67;3.40;;;;;;;-0.28;100.00;95897.25;10432689;28;20187;-74
2023/03/27 07:34:11;;;;;;;7.77;3.00;;;;;;;-0.41;100.00;95907.59;10433126;28;20198;-75
2023/03/27 07:39:35;;;;;;;4.27;2.50;;;;;;;-0.48;100.00;95907.19;10431338;28;20318;-75
2023/03/27 07:44:36;;;;;;;5.23;2.33;;;;;;;-0.56;100.00;95907.72;10432295;28;20191;-75
2023/03/27 07:49:40;;;;;;;4.70;2.80;;;;;;;-0.41;100.00;95920.47;10432037;28;20237;-75
2023/03/27 07:54:47;;;;;;;3.07;2.27;;;;;;;-0.25;100.00;95923.56;10431955;28;20214;-75
2023/03/27 07:59:49;;;;;;;4.33;2.50;;;;;;;-0.28;100.00;95917.81;10442897;28;20215;-75
2023/03/27 08:04:57;;;;;;;3.70;2.37;;;;;;;-0.38;100.00;95936.50;10432672;28;20202;-76
2023/03/27 08:09:57;;;;;;;2.80;2.47;;;;;;;-0.10;100.00;95937.09;10437559;28;20203;-76
2023/03/27 08:14:58;;;;;;;3.23;2.63;;;;;;;0.24;100.00;95952.69;10441941;28;20200;-77
2023/03/27 08:20:03;;;;;;;5.20;2.50;;;;;;;0.05;100.00;95931.81;10434757;28;20242;-76
2023/03/27 08:25:06;;;;;;;4.07;2.30;;;;;;;0.34;100.00;95938.22;10434303;28;20190;-76
2023/03/27 08:30:08;;;;;;;4.17;2.67;;;;;;;0.15;100.00;95932.75;10431792;28;20724;-76
2023/03/27 08:35:12;;;;;;;6.13;3.13;;;;;;;0.48;100.00;95954.41;10416192;28;20310;-76
2023/03/27 08:40:24;;;;;;;3.07;2.30;;;;;;;0.27;100.00;95961.97;10430634;28;20564;-76
2023/03/27 08:45:52;;;;;;;3.20;2.47;;;;;;;-0.37;100.00;95989.63;10416560;28;20555;-76
2023/03/27 08:50:58;;;;;;;6.13;3.27;;;;;;;0.29;100.00;95994.41;10415132;28;20325;-75
2023/03/27 08:56:00;;;;;;;4.97;3.33;;;;;;;1.71;100.00;96001.88;10422237;28;20690;-76
2023/03/27 09:01:28;;;;;;;5.43;3.23;;;;;;;3.47;100.00;95966.13;10423004;28;20224;-76
2023/03/27 09:06:41;;;;;;;2.33;2.03;;;;;;;4.77;100.00;95912.31;10421881;28;20188;-76
2023/03/27 09:12:11;;;;;;;4.23;2.03;;;;;;;3.48;86.51;95843.50;10421118;28;20732;-76
2023/03/27 09:17:20;;;;;;;4.07;2.27;;;;;;;2.04;92.18;95911.53;10436249;28;20192;-75
2023/03/27 09:22:24;;;;;;;3.40;2.23;;;;;;;1.04;98.90;95970.00;10436538;28;20218;-76
2023/03/27 09:27:35;;;;;;;4.50;2.53;;;;;;;0.64;100.00;96013.38;10422518;28;20594;-75
2023/03/27 09:33:04;;;;;;;7.33;3.57;;;;;;;1.14;100.00;96033.78;10435294;28;20275;-75
2023/03/27 09:38:22;;;;;;;6.93;4.37;;;;;;;2.16;100.00;96020.81;10436584;28;20231;-75
2023/03/27 09:43:27;;;;;;;2.23;1.80;;;;;;;2.60;100.00;95962.13;10437023;28;20303;-75
2023/03/27 09:48:37;;;;;;;4.00;2.03;;;;;;;3.51;95.46;95942.44;10436896;28;20659;-74
2023/03/27 09:53:56;;;;;;;2.83;1.53;;;;;;;3.58;88.14;95919.41;10434790;28;20203;-74
2023/03/27 09:58:57;;;;;;;2.13;1.70;;;;;;;2.93;90.78;95960.31;10436219;28;20204;-75
2023/03/27 10:03:59;;;;;;;4.23;2.20;;;;;;;2.74;92.02;95998.03;10419030;28;20192;-75
2023/03/27 10:09:25;;;;;;;3.33;1.90;;;;;;;2.14;92.86;96005.44;10435812;28;20271;-74
2023/03/27 10:14:29;;;;;;;6.93;2.70;;;;;;;1.99;100.00;96051.41;10435676;28;20192;-75
2023/03/27 10:19:38;;;;;;;7.27;2.30;;;;;;;3.37;100.00;96046.34;10418813;28;20212;-75
2023/03/27 10:24:46;;;;;;;5.43;1.80;;;;;;;3.86;90.00;95980.00;10434296;28;20199;-75
2023/03/27 10:30:26;;;;;;;4.50;1.90;;;;;;;4.37;89.28;95998.09;10433369;28;20188;-75
2023/03/27 10:35:34;;;;;;;5.43;1.80;;;;;;;4.03;84.64;95947.44;10434141;28;20668;-74
2023/03/27 10:40:48;;;;;;;6.90;2.50;;;;;;;3.94;83.26;95963.81;10434771;28;20232;-74
2023/03/27 10:45:59;;;;;;;4.67;1.67;;;;;;;3.34;81.70;95954.22;10434515;28;20184;-74
2023/03/27 10:51:04;;;;;;;7.00;1.90;;;;;;;2.66;85.16;96003.84;10433227;28;20184;-74
2023/03/27 10:56:39;;;;;;;5.83;2.33;;;;;;;4.73;87.38;96042.47;10447707;28;20196;-74
2023/03/27 11:01:44;;;;;;;7.27;1.93;;;;;;;5.20;78.21;95940.50;10433133;28;20342;-74
2023/03/27 11:06:47;;;;;;;4.37;1.47;;;;;;;4.58;75.91;95928.75;10416493;28;20188;-75
2023/03/27 11:11:55;;;;;;;3.33;1.77;;;;;;;4.06;76.28;95951.56;10401087;28;20207;-74
2023/03/27 11:16:59;;;;;;;3.53;1.70;;;;;;;3.92;74.95;95919.88;10415990;28;20275;-74
2023/03/27 11:22:42;;;;;;;6.63;1.90;;;;;;;4.72;74.33;95935.28;10421633;28;20236;-75
2023/03/27 11:28:02;;;;;;;4.60;1.80;;;;;;;4.77;74.29;95938.25;10416481;28;20192;-75
2023/03/27 11:33:42;;;;;;;4.77;1.87;;;;;;;4.81;74.19;95952.59;10431789;28;20196;-75
2023/03/27 11:39:03;;;;;;;5.43;2.40;;;;;;;4.06;74.08;95964.50;10431867;28;20319;-75
2023/03/27 11:44:05;;;;;;;6.63;2.03;;;;;;;2.64;83.66;96109.16;10431663;28;20614;-75
2023/03/27 11:49:39;;;;;;;1.80;1.70;;;;;;;3.12;88.59;96154.47;10449275;28;20226;-75
2023/03/27 11:55:11;;;;;;;6.00;2.00;;;;;;;4.59;84.16;96091.19;10449455;28;20191;-75
2023/03/27 12:00:24;;;;;;;6.13;2.00;;;;;;;5.23;80.78;96052.66;10415291;28;20215;-76
2023/03/27 12:05:44;;;;;;;2.53;1.90;;;;;;;6.74;74.64;95988.31;10449409;28;20291;-76
2023/03/27 12:10:48;;;;;;;5.60;1.40;;;;;;;7.06;66.68;95878.34;10431314;28;20223;-76
2023/03/27 12:16:05;;;;;;;4.57;1.70;;;;;;;7.96;63.44;95871.78;10401722;28;20257;-76
2023/03/27 12:21:46;;;;;;;2.20;1.20;;;;;;;5.78;64.74;95883.03;10433727;28;20224;-75
2023/03/27 12:26:56;;;;;;;5.87;1.83;;;;;;;4.98;72.28;96010.75;10417068;28;20187;-75
2023/03/27 12:32:36;;;;;;;12.20;1.93;;;;;;;5.19;79.13;96108.41;10457106;28;20632;-75
2023/03/27 12:37:46;;;;;;;10.63;1.70;;;;;;;7.17;71.80;95988.41;10422674;28;20235;-75
2023/03/27 12:42:47;;;;;;;4.13;1.93;;;;;;;8.25;66.18;95920.88;10422719;28;20290;-76
2023/03/27 12:48:08;;;;;;;4.17;1.53;;;;;;;9.18;59.63;95843.13;10456002;28;20184;-75
2023/03/27 12:53:25;;;;;;;3.83;1.90;;;;;;;6.99;61.16;95848.69;10438528;28;20695;-76
2023/03/27 12:58:32;;;;;;;6.40;1.90;;;;;;;6.19;62.86;95890.44;10438186;28;20258;-75
2023/03/27 13:04:23;;;;;;;5.13;2.10;;;;;;;5.55;65.55;95921.59;10424987;28;20192;-75
2023/03/27 13:09:51;;;;;;;9.03;3.13;;;;;;;5.17;67.97;95972.72;10421467;28;20283;-75
2023/03/27 13:15:05;;;;;;;12.83;3.80;;;;;;;7.57;64.39;95953.97;10437679;28;20279;-75
2023/03/27 13:20:47;;;;;;;2.57;1.27;;;;;;;8.51;53.32;95763.34;10415472;28;20281;-75
2023/03/27 13:26:20;;;;;;;3.23;1.40;;;;;;;7.14;55.70;95815.84;10424756;28;20227;-75
2023/03/27 13:31:45;;;;;;;2.33;1.27;;;;;;;4.39;64.66;95996.19;10411903;28;20761;-75
2023/03/27 13:37:12;;;;;;;5.33;1.53;;;;;;;3.58;78.98;96219.81;10394438;28;20224;-74
2023/03/27 13:42:27;;;;;;;6.17;1.60;;;;;;;5.38;80.56;96203.69;10394087;28;20220;-75
2023/03/27 13:47:33;;;;;;;5.30;1.50;;;;;;;7.73;67.14;96022.78;10378632;28;20188;-76
2023/03/27 13:53:15;;;;;;;2.70;1.47;;;;;;;8.48;58.24;95895.00;10413546;28;20314;-76
2023/03/27 13:58:42;;;;;;;3.73;1.43;;;;;;;8.70;56.56;95890.91;10435165;28;20220;-77
2023/03/27 14:03:59;;;;;;;2.93;1.10;;;;;;;8.82;55.15;95870.50;10434757;28;20196;-76
2023/03/27 14:09:40;;;;;;;5.80;1.63;;;;;;;8.08;60.06;95967.00;10435316;28;20731;-76
2023/03/27 14:15:16;;;;;;;5.67;1.33;;;;;;;8.44;57.19;95919.81;10434603;28;20183;-76
2023/03/27 14:20:24;;;;;;;4.97;1.57;;;;;;;7.48;59.57;95965.31;10434036;28;20274;-76
2023/03/27 14:25:32;;;;;;;2.83;1.60;;;;;;;6.78;61.02;95974.00;10430707;28;20190;-76
2023/03/27 14:30:48;;;;;;;7.20;2.17;;;;;;;5.57;68.11;96096.34;10420583;28;20212;-75
2023/03/27 14:36:04;;;;;;;8.53;2.50;;;;;;;5.56;67.88;96076.53;10412651;28;20196;-76
2023/03/27 14:41:16;;;;;;;6.00;1.93;;;;;;;3.21;74.12;96151.13;10391902;28;20229;-76
2023/03/27 14:46:24;;;;;;;3.50;1.87;;;;;;;2.92;75.94;96163.03;10377050;28;20227;-76
2023/03/27 14:51:35;;;;;;;2.67;1.90;;;;;;;2.11;81.23;96245.94;10391512;28;20621;-76
2023/03/27 14:56:41;;;;;;;4.20;2.80;;;;;;;2.39;86.98;96296.41;10431818;28;20423;-76
2023/03/27 15:02:03;;;;;;;5.03;3.10;;;;;;;1.77;97.84;96325.94;10432529;28;20935;-76
2023/03/27 15:07:17;;;;;;;3.57;2.47;;;;;;;0.80;100.00;96335.38;10432399;28;20652;-77
2023/03/27 15:12:47;;;;;;;3.67;2.63;;;;;;;0.44;100.00;96358.34;10449385;28;20184;-76
2023/03/27 15:17:58;;;;;;;5.03;2.10;;;;;;;0.66;100.00;96349.19;10432964;28;20189;-76
2023/03/27 15:23:16;;;;;;;3.70;2.13;;;;;;;0.69;100.00;96341.25;10431351;28;20361;-75
2023/03/27 15:28:22;;;;;;;2.77;1.93;;;;;;;3.36;100.00;96337.25;10432896;28;20230;-76
2023/03/27 15:33:33;;;;;;;1.40;1.30;;;;;;;6.52;100.00;96266.19;10432104;28;20648;-76
2023/03/27 15:38:35;;;;;;;2.17;1.30;;;;;;;8.66;78.16;96145.47;10449522;28;20588;-76
2023/03/27 15:43:35;;;;;;;1.40;1.00;;;;;;;7.79;70.74;96103.00;10445949;28;20736;-76
2023/03/27 15:48:39;;;;;;;3.87;1.60;;;;;;;4.28;75.45;96160.47;10446872;28;20184;-76
2023/03/27 15:53:43;;;;;;;2.87;1.73;;;;;;;3.38;86.65;96287.00;10448040;28;20264;-75
2023/03/27 15:58:56;;;;;;;2.63;2.17;;;;;;;2.27;95.62;96323.97;10450708;28;20307;-76
2023/03/27 16:03:59;;;;;;;2.13;1.87;;;;;;;2.22;100.00;96331.25;10460386;28;20315;-76
2023/03/27 16:09:00;;;;;;;5.57;2.03;;;;;;;1.92;100.00;96347.25;10462865;28;20245;-74
2023/03/27 16:14:00;;;;;;;3.33;2.70;;;;;;;1.81;100.00;96349.78;10462522;28;20219;-74
2023/03/27 16:19:03;;;;;;;2.93;2.27;;;;;;;1.54;100.00;96346.50;10428751;28;20220;-74
2023/03/27 16:24:04;;;;;;;2.83;2.53;;;;;;;1.19;100.00;96352.38;10420088;28;20193;-74
2023/03/27 16:29:04;;;;;;;2.47;2.27;;;;;;;1.00;100.00;96342.53;10453869;28;20196;-74
2023/03/27 16:34:11;;;;;;;4.03;2.63;;;;;;;0.92;100.00;96356.88;10438011;28;20192;-75
2023/03/27 16:39:11;;;;;;;3.97;2.13;;;;;;;0.85;100.00;96370.19;10421901;28;20248;-74
2023/03/27 16:44:12;;;;;;;3.30;2.47;;;;;;;0.80;100.00;96369.69;10420430;28;20656;-74
2023/03/27 16:49:12;;;;;;;4.97;3.83;;;;;;;0.79;100.00;96365.47;10420577;28;20184;-74
2023/03/27 16:54:12;;;;;;;6.27;2.87;;;;;;;0.63;100.00;96394.03;10419706;28;20200;-75
2023/03/27 16:59:14;;;;;;;3.03;2.77;;;;;;;0.09;100.00;96417.34;10420327;28;20631;-75
2023/03/27 17:04:15;;;;;;;3.83;3.43;;;;;;;-0.38;100.00;96424.63;10420006;28;20196;-76
2023/03/27 17:09:16;;;;;;;4.77;4.23;;;;;;;-0.44;100.00;96438.69;10419739;28;20291;-76
2023/03/27 17:14:16;;;;;;;7.87;4.70;;;;;;;-0.60;100.00;96448.25;10415285;28;20192;-76
2023/03/27 17:19:17;;;;;;;9.87;7.30;;;;;;;-0.65;100.00;96453.69;10413053;28;20800;-76
2023/03/27 17:24:18;;;;;;;7.60;6.07;;;;;;;-0.74;100.00;96462.78;10412841;28;20214;-76
2023/03/27 17:29:19;;;;;;;15.47;10.93;;;;;;;-0.72;100.00;96458.38;10412662;28;20200;-76
2023/03/27 17:34:19;;;;;;;7.13;3.97;;;;;;;-0.70;100.00;96470.31;10412335;28;20192;-76
2023/03/27 17:39:20;;;;;;;6.87;4.13;;;;;;;-0.80;100.00;96478.56;10412824;28;20739;-75
2023/03/27 17:44:20;;;;;;;5.67;3.60;;;;;;;-0.91;100.00;96488.69;10413053;28;20692;-75
2023/03/27 17:49:20;;;;;;;4.93;3.23;;;;;;;-0.68;100.00;96489.06;10410871;28;20196;-75
2023/03/27 17:54:21;;;;;;;17.13;13.80;;;;;;;-0.61;100.00;96493.75;10410984;28;20327;-75
2023/03/27 17:59:21;;;;;;;3.93;2.40;;;;;;;-0.62;100.00;96484.38;10411106;28;20216;-75
2023/03/27 18:04:22;;;;;;;4.27;2.80;;;;;;;-0.49;100.00;96487.03;10393114;28;20199;-75
2023/03/27 18:09:23;;;;;;;5.73;3.73;;;;;;;-0.38;100.00;96497.50;10410642;28;20185;-75
2023/03/27 18:14:24;;;;;;;16.63;9.50;;;;;;;-0.36;100.00;96510.25;10410237;28;20189;-74
2023/03/27 18:19:27;;;;;;;4.70;4.20;;;;;;;-0.26;100.00;96518.22;10392162;28;20580;-74
2023/03/27 18:24:27;;;;;;;3.27;2.47;;;;;;;-0.32;100.00;96532.31;10390785;28;20227;-74
2023/03/27 18:29:29;;;;;;;4.57;3.53;;;;;;;-0.55;100.00;96538.88;10382291;28;20205;-74
2023/03/27 18:34:30;;;;;;;31.47;9.40;;;;;;;-0.64;100.00;96560.00;10408394;28;20276;-75
2023/03/27 18:39:33;;;;;;;12.03;6.30;;;;;;;-0.69;100.00;96562.81;10409577;28;20236;-75
2023/03/27 18:44:35;;;;;;;10.80;4.70;;;;;;;-0.85;100.00;96573.19;10409183;28;20681;-75
2023/03/27 18:49:35;;;;;;;6.10;3.53;;;;;;;-0.83;100.00;96573.91;10408352;28;20576;-75
2023/03/27 18:54:36;;;;;;;18.70;6.97;;;;;;;-0.93;100.00;96572.81;10408284;28;20267;-75
2023/03/27 18:59:36;;;;;;;13.57;6.50;;;;;;;-0.85;100.00;96564.66;10408325;28;20230;-75
2023/03/27 19:04:37;;;;;;;11.20;5.60;;;;;;;-1.04;100.00;96570.88;10407652;28;20188;-75
2023/03/27 19:09:37;;;;;;;10.27;4.63;;;;;;;-1.06;100.00;96556.44;10408052;28;20207;-74
2023/03/27 19:14:37;;;;;;;3.93;3.13;;;;;;;-1.25;100.00;96557.50;10407617;28;20191;-74
2023/03/27 19:19:56;;;;;;;4.70;3.60;;;;;;;-1.26;100.00;96550.69;10407217;28;20217;-75
2023/03/27 19:25:08;;;;;;;4.60;3.50;;;;;;;-1.37;100.00;96553.88;10407729;28;20196;-74
2023/03/27 19:30:12;;;;;;;8.30;5.07;;;;;;;-1.36;100.00;96568.38;10406909;28;20188;-75
2023/03/27 19:35:12;;;;;;;7.73;4.93;;;;;;;-1.23;100.00;96567.69;10389016;28;20199;-74
2023/03/27 19:40:14;;;;;;;7.67;4.60;;;;;;;-1.21;100.00;96566.69;10389674;28;20235;-74
2023/03/27 19:45:15;;;;;;;6.90;4.17;;;;;;;-1.24;100.00;96569.44;10406419;28;20185;-74
2023/03/27 19:50:15;;;;;;;4.93;3.80;;;;;;;-1.37;100.00;96573.59;10406338;28;20184;-74
2023/03/27 19:55:33;;;;;;;3.60;3.20;;;;;;;-1.46;100.00;96568.06;10406786;28;20192;-74
2023/03/27 20:00:37;;;;;;;3.83;3.40;;;;;;;-1.46;100.00;96577.50;10406356;28;20226;-74
2023/03/27 20:05:40;;;;;;;3.33;3.03;;;;;;;-1.49;100.00;96573.38;10406604;28;20193;-74
2023/03/27 20:10:44;;;;;;;5.17;3.40;;;;;;;-1.50;100.00;96569.16;10406601;28;20184;-74
2023/03/27 20:15:46;;;;;;;3.80;2.90;;;;;;;-1.53;100.00;96571.06;10406300;28;20189;-74
2023/03/27 20:20:48;;;;;;;4.33;3.20;;;;;;;-1.66;100.00;96560.66;10405972;28;20223;-74
2023/03/27 20:25:50;;;;;;;3.57;2.50;;;;;;;-1.58;100.00;96565.34;10406555;28;20722;-74
2023/03/27 20:30:51;;;;;;;4.07;2.47;;;;;;;-1.52;100.00;96565.81;10405463;28;20185;-74
2023/03/27 20:35:51;;;;;;;4.10;2.70;;;;;;;-1.57;100.00;96565.25;10389340;28;20560;-74
2023/03/27 20:40:53;;;;;;;3.60;2.57;;;;;;;-1.56;100.00;96573.78;10406988;28;20763;-74
2023/03/27 20:45:58;;;;;;;3.87;2.43;;;;;;;-1.60;100.00;96574.91;10388878;28;20258;-74
2023/03/27 20:51:01;;;;;;;4.60;2.50;;;;;;;-1.66;100.00;96569.16;10412768;28;20184;-75
2023/03/27 20:56:03;;;;;;;6.63;3.00;;;;;;;-1.64;100.00;96576.78;10396791;28;20553;-73
2023/03/27 21:01:07;;;;;;;3.77;2.97;;;;;;;-1.49;100.00;96575.94;10396565;28;20221;-74
2023/03/27 21:06:10;;;;;;;8.37;3.77;;;;;;;-1.39;100.00;96581.41;10414142;28;20660;-74
2023/03/27 21:11:11;;;;;;;5.90;3.70;;;;;;;-1.39;100.00;96576.25;10395969;28;20181;-74
2023/03/27 21:16:11;;;;;;;6.10;4.13;;;;;;;-1.29;100.00;96576.56;10414124;28;20275;-74
2023/03/27 21:21:11;;;;;;;7.03;3.57;;;;;;;-1.23;100.00;96571.06;10417540;28;20581;-74
2023/03/27 21:26:12;;;;;;;5.60;3.83;;;;;;;-1.34;100.00;96560.59;10454503;28;20591;-74
2023/03/27 21:31:12;;;;;;;5.37;3.43;;;;;;;-1.34;100.00;96563.97;10454398;28;20212;-74
2023/03/27 21:36:12;;;;;;;7.73;2.80;;;;;;;-1.21;100.00;96556.41;10454017;28;20203;-74
2023/03/27 21:41:14;;;;;;;6.13;2.80;;;;;;;-1.06;100.00;96557.25;10453386;28;20258;-74
2023/03/27 21:46:15;;;;;;;4.93;2.80;;;;;;;-0.95;100.00;96549.75;10435915;28;20192;-74
2023/03/27 21:51:15;;;;;;;2.97;2.50;;;;;;;-0.94;100.00;96568.59;10453201;28;20191;-74
2023/03/27 21:56:15;;;;;;;3.30;2.13;;;;;;;-1.15;100.00;96562.94;10451923;28;20613;-74
2023/03/27 22:01:16;;;;;;;2.53;2.27;;;;;;;-1.17;100.00;96555.31;10452752;28;20684;-74
2023/03/27 22:06:16;;;;;;;2.70;2.20;;;;;;;-1.18;100.00;96569.09;10453998;28;20219;-74
2023/03/27 22:11:16;;;;;;;4.93;2.60;;;;;;;-1.09;100.00;96572.84;10452378;28;20199;-74
2023/03/27 22:16:17;;;;;;;2.90;2.37;;;;;;;-1.02;100.00;96578.50;10453362;28;20679;-74
2023/03/27 22:21:21;;;;;;;4.60;3.00;;;;;;;-0.86;100.00;96563.81;10452247;28;20762;-74
2023/03/27 22:26:26;;;;;;;3.87;2.03;;;;;;;-0.85;100.00;96560.31;10452605;28;20192;-74
2023/03/27 22:31:27;;;;;;;5.57;2.40;;;;;;;-0.94;100.00;96560.88;10434445;28;20190;-74
2023/03/27 22:36:28;;;;;;;3.23;2.20;;;;;;;-0.93;100.00;96559.97;10451944;28;20246;-74
2023/03/27 22:41:28;;;;;;;2.60;2.00;;;;;;;-0.82;100.00;96562.72;10451477;28;20254;-74
2023/03/27 22:46:28;;;;;;;2.83;1.77;;;;;;;-0.87;100.00;96561.31;10451862;28;20206;-74
2023/03/27 22:51:29;;;;;;;4.50;2.17;;;;;;;-0.84;100.00;96562.00;10450077;28;20207;-74
2023/03/27 22:56:30;;;;;;;3.30;2.17;;;;;;;-0.96;100.00;96565.28;10451025;28;20195;-74
2023/03/27 23:01:30;;;;;;;3.00;1.80;;;;;;;-1.04;100.00;96570.88;10444650;28;20216;-74
2023/03/27 23:06:30;;;;;;;2.90;1.90;;;;;;;-0.88;100.00;96578.50;10412195;28;20215;-74
2023/03/27 23:11:31;;;;;;;4.77;2.27;;;;;;;-0.84;100.00;96572.28;10408490;28;20263;-74
2023/03/27 23:16:31;;;;;;;4.87;2.50;;;;;;;-0.70;100.00;96578.34;10410077;28;20628;-75
2023/03/27 23:21:32;;;;;;;7.57;2.40;;;;;;;-0.63;100.00;96582.22;10408647;28;20702;-75
2023/03/27 23:26:32;;;;;;;2.83;1.63;;;;;;;-0.64;100.00;96580.56;10409342;28;20230;-75
2023/03/27 23:31:32;;;;;;;3.70;2.60;;;;;;;-0.59;100.00;96588.84;10408997;28;20194;-75
2023/03/27 23:36:33;;;;;;;2.83;2.50;;;;;;;-0.66;100.00;96596.09;10408150;28;20320;-75
2023/03/27 23:41:33;;;;;;;3.20;2.50;;;;;;;-0.80;100.00;96593.50;10408288;28;20576;-75
2023/03/27 23:46:33;;;;;;;4.50;2.53;;;;;;;-0.79;100.00;96583.13;10408527;28;20197;-75